createdAt,value
2019-04-03T00:00:54.248Z,6.60
2019-04-03T00:03:24.136Z,6.60
2019-04-03T00:05:54.131Z,6.60
2019-04-03T00:08:24.368Z,6.60
2019-04-03T00:10:54.301Z,6.60
2019-04-03T00:13:24.141Z,6.60
2019-04-03T00:15:54.176Z,6.60
2019-04-03T00:18:25.092Z,6.60
2019-04-03T00:20:54.986Z,6.50
2019-04-03T00:23:24.932Z,6.50
2019-04-03T00:25:54.849Z,6.50
2019-04-03T00:28:24.768Z,6.50
2019-04-03T00:30:54.735Z,6.40
2019-04-03T00:33:24.662Z,6.40
2019-04-03T00:35:54.666Z,6.50
2019-04-03T00:38:24.741Z,6.40
2019-04-03T00:40:54.975Z,6.40
2019-04-03T00:43:25.329Z,6.40
2019-04-03T00:45:55.544Z,6.50
2019-04-03T00:48:26.116Z,6.40
2019-04-03T00:50:57.543Z,6.30
2019-04-03T00:53:28.211Z,6.30
2019-04-03T00:55:59.317Z,6.30
2019-04-03T00:58:37.007Z,6.20
2019-04-03T01:01:08.485Z,6.20
2019-04-03T01:03:38.567Z,6.10
2019-04-03T01:06:08.871Z,6.10
2019-04-03T01:08:38.961Z,6.10
2019-04-03T01:11:09.061Z,6.10
2019-04-03T01:13:38.985Z,6.10
2019-04-03T01:16:09.954Z,6.00
2019-04-03T01:18:40.089Z,6.00
2019-04-03T01:21:10.005Z,6.00
2019-04-03T01:23:40.271Z,6.00
2019-04-03T01:26:10.387Z,6.00
2019-04-03T01:28:41.925Z,6.00
2019-04-03T01:31:14.385Z,6.00
2019-04-03T01:33:46.053Z,5.90
2019-04-03T01:36:17.229Z,6.00
2019-04-03T01:38:49.248Z,6.00
2019-04-03T01:41:18.837Z,5.90
2019-04-03T01:43:50.109Z,5.90
2019-04-03T01:46:20.289Z,5.90
2019-04-03T01:48:50.288Z,5.90
2019-04-03T01:51:20.215Z,5.80
2019-04-03T01:53:50.067Z,5.90
2019-04-03T01:56:20.052Z,5.90
2019-04-03T01:58:49.919Z,5.90
2019-04-03T02:01:19.763Z,5.80
2019-04-03T02:03:49.727Z,5.80
2019-04-03T02:06:19.636Z,5.80
2019-04-03T02:08:49.511Z,5.80
2019-04-03T02:11:19.433Z,5.80
2019-04-03T02:13:51.003Z,5.80
2019-04-03T02:16:21.467Z,5.80
2019-04-03T02:18:53.587Z,5.80
2019-04-03T02:21:24.187Z,5.70
2019-04-03T02:23:54.167Z,5.70
2019-04-03T02:26:24.084Z,5.80
2019-04-03T02:28:53.939Z,5.70
2019-04-03T02:31:23.952Z,5.70
2019-04-03T02:33:53.902Z,5.70
2019-04-03T02:36:23.948Z,5.70
2019-04-03T02:38:54.628Z,5.70
2019-04-03T02:41:24.759Z,5.70
2019-04-03T02:43:54.743Z,5.80
2019-04-03T02:46:26.921Z,5.80
2019-04-03T02:48:56.228Z,5.70
2019-04-03T02:51:26.216Z,5.70
2019-04-03T02:53:56.486Z,5.70
2019-04-03T02:56:26.558Z,5.70
2019-04-03T02:58:56.428Z,5.70
2019-04-03T03:01:26.393Z,5.80
2019-04-03T03:03:56.417Z,5.70
2019-04-03T03:06:26.327Z,5.70
2019-04-03T03:08:58.233Z,5.70
2019-04-03T03:11:28.444Z,5.80
2019-04-03T03:14:00.174Z,5.80
2019-04-03T03:16:30.415Z,5.80
2019-04-03T03:19:01.684Z,5.80
2019-04-03T03:21:32.232Z,5.80
2019-04-03T03:24:03.391Z,5.80
2019-04-03T03:26:36.229Z,5.80
2019-04-03T03:29:16.227Z,5.80
2019-04-03T03:32:01.508Z,5.80
2019-04-03T03:34:09.173Z,5.80
2019-04-03T03:36:40.475Z,5.80
2019-04-03T03:39:11.862Z,5.80
2019-04-03T03:41:42.128Z,5.80
2019-04-03T03:44:12.616Z,5.80
2019-04-03T03:46:42.900Z,5.80
2019-04-03T03:49:17.201Z,5.80
2019-04-03T03:51:46.036Z,5.80
2019-04-03T03:54:18.362Z,5.80
2019-04-03T03:57:09.551Z,5.80
2019-04-03T03:59:40.808Z,5.80
2019-04-03T04:02:11.037Z,5.80
2019-04-03T04:04:41.311Z,5.80
2019-04-03T04:07:11.335Z,5.70
2019-04-03T04:09:41.308Z,5.70
2019-04-03T04:12:12.302Z,5.70
2019-04-03T04:14:42.412Z,5.70
2019-04-03T04:17:16.749Z,5.70
2019-04-03T04:19:46.335Z,5.70
2019-04-03T04:22:18.162Z,5.70
2019-04-03T04:24:48.710Z,5.70
2019-04-03T04:27:18.901Z,5.70
2019-04-03T04:29:48.926Z,5.70
2019-04-03T04:32:18.928Z,5.60
2019-04-03T04:34:50.037Z,5.60
2019-04-03T04:37:20.751Z,5.60
2019-04-03T04:39:50.765Z,5.60
2019-04-03T04:42:21.755Z,5.60
2019-04-03T04:44:51.764Z,5.60
2019-04-03T04:47:21.616Z,5.60
2019-04-03T04:49:51.755Z,5.60
2019-04-03T04:52:27.593Z,5.50
2019-04-03T04:55:01.825Z,5.50
2019-04-03T04:57:31.352Z,5.50
2019-04-03T05:00:01.352Z,5.50
2019-04-03T05:02:31.283Z,5.50
2019-04-03T05:05:01.404Z,5.50
2019-04-03T05:07:32.479Z,5.50
2019-04-03T05:10:05.353Z,5.50
2019-04-03T05:12:34.323Z,5.40
2019-04-03T05:15:04.575Z,5.40
2019-04-03T05:17:34.523Z,5.40
2019-04-03T05:20:05.247Z,5.40
2019-04-03T05:22:35.383Z,5.30
2019-04-03T05:25:05.633Z,5.30
2019-04-03T05:27:35.520Z,5.30
2019-04-03T05:30:06.465Z,5.30
2019-04-03T05:32:36.740Z,5.30
2019-04-03T05:35:06.946Z,5.40
2019-04-03T05:37:36.929Z,5.40
2019-04-03T05:40:07.028Z,5.40
2019-04-03T05:42:36.976Z,5.40
2019-04-03T05:45:07.633Z,5.40
2019-04-03T05:47:39.505Z,5.40
2019-04-03T05:50:10.243Z,5.40
2019-04-03T05:52:40.496Z,5.40
2019-04-03T05:55:10.741Z,5.40
2019-04-03T05:57:40.677Z,5.40
2019-04-03T06:00:11.161Z,5.40
2019-04-03T06:02:42.170Z,5.40
2019-04-03T06:05:13.139Z,5.40
2019-04-03T06:07:43.292Z,5.40
2019-04-03T06:10:13.301Z,5.40
2019-04-03T06:12:45.355Z,5.40
2019-04-03T06:15:15.441Z,5.40
2019-04-03T06:17:45.720Z,5.40
2019-04-03T06:20:15.724Z,5.40
2019-04-03T06:22:45.668Z,5.40
2019-04-03T06:25:16.619Z,5.50
2019-04-03T06:27:46.932Z,5.50
2019-04-03T06:30:17.797Z,5.50
2019-04-03T06:32:47.835Z,5.50
2019-04-03T06:35:17.732Z,5.50
2019-04-03T06:37:47.639Z,5.50
2019-04-03T06:40:18.714Z,5.60
2019-04-03T06:42:48.830Z,5.50
2019-04-03T06:45:19.019Z,5.60
2019-04-03T06:47:49.133Z,5.60
2019-04-03T06:50:19.232Z,5.60
2019-04-03T06:52:49.566Z,5.60
2019-04-03T06:55:19.637Z,5.60
2019-04-03T06:57:49.632Z,5.60
2019-04-03T07:00:19.721Z,5.70
2019-04-03T07:02:49.907Z,5.70
2019-04-03T07:05:19.971Z,5.70
2019-04-03T07:07:49.912Z,5.70
2019-04-03T07:10:25.581Z,5.80
2019-04-03T07:12:51.642Z,5.80
2019-04-03T07:15:23.992Z,5.80
2019-04-03T07:17:53.534Z,5.80
2019-04-03T07:20:23.933Z,5.90
2019-04-03T07:22:53.777Z,5.90
2019-04-03T07:25:23.806Z,5.90
2019-04-03T07:27:53.915Z,6.00
2019-04-03T07:30:23.944Z,6.00
2019-04-03T07:32:57.039Z,6.10
2019-04-03T07:35:25.624Z,6.10
2019-04-03T07:37:55.809Z,6.10
2019-04-03T07:40:25.752Z,6.10
2019-04-03T07:42:56.841Z,6.20
2019-04-03T07:45:27.495Z,6.20
2019-04-03T07:47:57.501Z,6.20
2019-04-03T07:50:27.402Z,6.30
2019-04-03T07:52:57.534Z,6.30
2019-04-03T07:55:28.513Z,6.30
2019-04-03T07:58:00.004Z,6.30
2019-04-03T08:00:31.135Z,6.30
2019-04-03T08:03:01.363Z,6.40
2019-04-03T08:05:31.679Z,6.40
2019-04-03T08:08:02.505Z,6.50
2019-04-03T08:10:33.038Z,6.50
2019-04-03T08:13:03.293Z,6.50
2019-04-03T08:15:33.426Z,6.60
2019-04-03T08:18:03.445Z,6.60
2019-04-03T08:20:33.887Z,6.60
2019-04-03T08:23:05.651Z,6.70
2019-04-03T08:25:36.444Z,6.70
2019-04-03T08:28:06.450Z,6.70
2019-04-03T08:30:37.082Z,6.80
2019-04-03T08:33:15.846Z,6.80
2019-04-03T08:35:39.789Z,6.80
2019-04-03T08:38:12.420Z,6.90
2019-04-03T08:40:41.859Z,6.90
2019-04-03T08:43:11.869Z,6.90
2019-04-03T08:45:42.046Z,6.90
2019-04-03T08:48:12.036Z,7.00
2019-04-03T08:50:41.949Z,7.10
2019-04-03T08:53:12.016Z,7.10
2019-04-03T08:55:42.210Z,7.20
2019-04-03T08:58:12.424Z,7.30
2019-04-03T09:00:42.388Z,7.30
2019-04-03T09:03:14.431Z,7.40
2019-04-03T09:05:44.317Z,7.50
2019-04-03T09:08:14.290Z,7.50
2019-04-03T09:10:44.289Z,7.60
2019-04-03T09:13:17.679Z,7.70
2019-04-03T09:15:46.291Z,7.70
2019-04-03T09:18:16.312Z,7.80
2019-04-03T09:20:46.499Z,7.70
2019-04-03T09:23:17.231Z,7.60
2019-04-03T09:25:47.239Z,7.60
2019-04-03T09:28:17.378Z,7.60
2019-04-03T09:30:48.410Z,7.60
2019-04-03T09:33:18.915Z,7.70
2019-04-03T09:35:48.930Z,7.70
2019-04-03T09:38:18.964Z,7.70
2019-04-03T09:40:48.963Z,7.80
2019-04-03T09:43:20.089Z,7.90
2019-04-03T09:45:50.543Z,8.00
2019-04-03T09:48:20.701Z,8.00
2019-04-03T09:50:51.009Z,8.10
2019-04-03T09:53:21.059Z,8.20
2019-04-03T09:55:51.192Z,8.30
2019-04-03T09:58:21.269Z,8.30
2019-04-03T10:00:51.840Z,8.40
2019-04-03T10:03:23.514Z,8.50
2019-04-03T10:05:53.559Z,8.60
2019-04-03T10:08:23.712Z,8.60
2019-04-03T10:10:53.788Z,8.70
2019-04-03T10:13:25.911Z,8.70
2019-04-03T10:15:55.525Z,8.60
2019-04-03T10:18:25.492Z,8.60
2019-04-03T10:20:55.492Z,8.60
2019-04-03T10:23:26.610Z,8.70
2019-04-03T10:25:57.147Z,8.80
2019-04-03T10:28:27.186Z,8.90
2019-04-03T10:30:57.162Z,9.00
2019-04-03T10:33:27.566Z,9.00
2019-04-03T10:35:58.488Z,9.00
2019-04-03T10:38:28.532Z,9.10
2019-04-03T10:40:58.623Z,9.00
2019-04-03T10:43:28.576Z,9.00
2019-04-03T10:45:58.565Z,9.00
2019-04-03T10:48:28.821Z,8.90
2019-04-03T10:50:59.214Z,8.80
2019-04-03T10:53:29.192Z,8.80
2019-04-03T10:55:59.892Z,8.80
2019-04-03T10:58:30.435Z,8.80
2019-04-03T11:01:00.394Z,8.70
2019-04-03T11:03:30.691Z,8.70
2019-04-03T11:06:01.213Z,8.70
2019-04-03T11:08:31.274Z,8.70
2019-04-03T11:11:04.255Z,8.70
2019-04-03T11:13:34.364Z,8.60
2019-04-03T11:16:05.081Z,8.60
2019-04-03T11:18:34.928Z,8.70
2019-04-03T11:21:05.320Z,8.60
2019-04-03T11:23:38.991Z,8.70
2019-04-03T11:26:07.191Z,8.70
2019-04-03T11:28:38.227Z,8.70
2019-04-03T11:31:08.684Z,8.60
2019-04-03T11:33:38.607Z,8.70
2019-04-03T11:36:08.628Z,8.70
2019-04-03T11:38:38.512Z,8.70
2019-04-03T11:41:14.452Z,8.70
2019-04-03T11:43:40.813Z,8.80
2019-04-03T11:46:10.809Z,8.80
2019-04-03T11:48:42.795Z,8.90
2019-04-03T11:51:12.460Z,8.90
2019-04-03T11:53:44.798Z,9.00
2019-04-03T11:56:14.173Z,9.00
2019-04-03T11:58:44.447Z,9.00
2019-04-03T12:01:16.754Z,9.10
2019-04-03T12:03:47.379Z,9.10
2019-04-03T12:06:20.318Z,9.00
2019-04-03T12:08:50.318Z,9.00
2019-04-03T12:11:20.672Z,9.00
2019-04-03T12:13:50.592Z,9.10
2019-04-03T12:16:20.692Z,9.10
2019-04-03T12:18:52.364Z,9.10
2019-04-03T12:21:23.356Z,9.00
2019-04-03T12:23:53.216Z,9.00
2019-04-03T12:26:23.196Z,9.00
2019-04-03T12:28:53.167Z,9.00
2019-04-03T12:31:23.104Z,8.90
2019-04-03T12:33:58.516Z,8.90
2019-04-03T12:36:27.046Z,8.80
2019-04-03T12:38:57.290Z,8.80
2019-04-03T12:41:27.974Z,8.70
2019-04-03T12:43:58.123Z,8.70
2019-04-03T12:46:40.895Z,8.70
2019-04-03T12:49:09.832Z,8.60
2019-04-03T12:51:39.871Z,8.60
2019-04-03T12:54:12.368Z,8.50
2019-04-03T12:56:41.587Z,8.40
2019-04-03T12:59:11.725Z,8.40
2019-04-03T13:01:42.170Z,8.30
2019-04-03T13:04:12.254Z,8.20
2019-04-03T13:06:42.472Z,8.10
2019-04-03T13:09:12.962Z,8.10
2019-04-03T13:11:43.153Z,8.00
2019-04-03T13:14:22.712Z,8.00
2019-04-03T13:16:46.654Z,8.00
2019-04-03T13:19:16.756Z,7.90
2019-04-03T13:21:47.032Z,7.90
2019-04-03T13:24:18.284Z,7.90
2019-04-03T13:26:48.307Z,8.00
2019-04-03T13:29:20.833Z,8.10
2019-04-03T13:31:50.600Z,8.20
2019-04-03T13:34:20.845Z,8.20
2019-04-03T13:36:51.943Z,8.30
2019-04-03T13:39:22.434Z,8.30
2019-04-03T13:41:52.417Z,8.40
2019-04-03T13:44:22.367Z,8.40
2019-04-03T13:46:52.855Z,8.40
2019-04-03T13:49:23.586Z,8.40
2019-04-03T13:51:53.935Z,8.50
2019-04-03T13:54:26.232Z,8.50
2019-04-03T13:56:55.640Z,8.50
2019-04-03T13:59:26.719Z,8.60
2019-04-03T14:01:57.454Z,8.60
2019-04-03T14:38:39.919Z,9.00
2019-04-03T14:41:10.097Z,8.90
2019-04-03T14:43:40.633Z,8.90
2019-04-03T14:46:10.812Z,8.90
2019-04-03T14:48:40.828Z,8.90
2019-04-03T14:51:11.770Z,8.90
2019-04-03T14:53:42.378Z,8.80
2019-04-03T14:56:12.832Z,8.90
2019-04-03T14:58:42.831Z,8.80
2019-04-03T15:01:13.362Z,8.80
2019-04-03T15:03:43.545Z,8.80
2019-04-03T15:06:15.094Z,8.80
2019-04-03T15:08:44.963Z,8.70
2019-04-03T15:11:14.998Z,8.70
2019-04-03T15:13:45.126Z,8.70
2019-04-03T15:16:15.377Z,8.70
2019-04-03T15:18:45.970Z,8.70
2019-04-03T15:21:17.899Z,8.70
2019-04-03T15:23:48.609Z,8.60
2019-04-03T15:26:21.826Z,8.60
2019-04-03T15:28:51.041Z,8.60
2019-04-03T15:31:23.426Z,8.50
2019-04-03T15:33:54.273Z,8.50
2019-04-03T15:36:24.413Z,8.50
2019-04-03T15:38:54.400Z,8.50
2019-04-03T15:41:27.320Z,8.40
2019-04-03T15:43:55.990Z,8.40
2019-04-03T15:46:27.117Z,8.40
2019-04-03T15:48:57.847Z,8.40
2019-04-03T15:51:27.922Z,8.30
2019-04-03T15:53:59.218Z,8.30
2019-04-03T15:56:30.064Z,8.30
2019-04-03T15:59:00.762Z,8.30
2019-04-03T16:01:31.104Z,8.20
2019-04-03T16:04:01.648Z,8.20
2019-04-03T16:06:31.742Z,8.20
2019-04-03T16:09:04.628Z,8.20
2019-04-03T16:11:34.675Z,8.10
2019-04-03T16:14:04.895Z,8.10
2019-04-03T16:16:34.866Z,8.10
2019-04-03T16:19:04.870Z,8.10
2019-04-03T16:21:34.824Z,8.10
2019-04-03T16:24:07.808Z,8.00
2019-04-03T16:26:36.420Z,8.00
2019-04-03T16:29:09.282Z,8.00
2019-04-03T16:31:39.521Z,8.00
2019-04-03T16:34:13.655Z,7.90
2019-04-03T16:36:44.151Z,7.90
2019-04-03T16:39:17.282Z,7.90
2019-04-03T16:41:46.360Z,7.90
2019-04-03T16:44:16.565Z,7.90
2019-04-03T16:46:46.759Z,7.70
2019-04-03T16:49:16.773Z,7.60
2019-04-03T16:51:46.727Z,7.50
2019-04-03T16:54:16.684Z,7.30
2019-04-03T16:56:47.005Z,7.10
2019-04-03T16:59:18.249Z,7.00
2019-04-03T17:01:48.498Z,6.80
2019-04-03T17:04:26.979Z,6.70
2019-04-03T17:06:50.786Z,6.60
2019-04-03T17:09:20.703Z,6.50
2019-04-03T17:11:51.204Z,6.40
2019-04-03T17:14:23.681Z,6.30
2019-04-03T17:16:52.960Z,6.30
2019-04-03T17:19:22.951Z,6.20
2019-04-03T17:21:52.979Z,6.20
2019-04-03T17:24:24.027Z,6.10
2019-04-03T17:26:58.808Z,6.10
2019-04-03T17:29:30.387Z,6.10
2019-04-03T17:32:01.555Z,6.10
2019-04-03T17:34:33.254Z,6.00
2019-04-03T17:37:07.858Z,5.90
2019-04-03T17:39:38.932Z,5.80
2019-04-03T17:42:10.340Z,5.80
2019-04-03T17:44:42.828Z,5.80
2019-04-03T17:47:14.171Z,5.80
2019-04-03T17:49:45.306Z,5.80
2019-04-03T17:52:16.385Z,5.80
2019-04-03T17:54:47.481Z,5.80
2019-04-03T17:57:18.515Z,5.80
2019-04-03T17:59:49.876Z,5.80
2019-04-03T18:02:29.465Z,5.80
2019-04-03T18:05:00.947Z,5.80
2019-04-03T18:07:32.162Z,5.80
2019-04-03T18:10:03.016Z,5.80
2019-04-03T18:12:34.530Z,5.80
2019-04-03T18:15:06.819Z,5.80
2019-04-03T18:17:38.537Z,5.80
2019-04-03T18:20:12.530Z,5.80
2019-04-03T18:22:45.470Z,5.80
2019-04-03T18:25:19.442Z,5.80
2019-04-03T18:27:50.839Z,5.80
2019-04-03T18:30:23.647Z,5.80
2019-04-03T18:32:53.789Z,5.90
2019-04-03T18:35:25.449Z,5.90
2019-04-03T18:37:55.493Z,5.70
2019-04-03T18:40:25.492Z,5.90
2019-04-03T18:42:55.491Z,5.90
2019-04-03T18:45:25.895Z,5.90
2019-04-03T18:47:56.353Z,5.80
2019-04-03T18:50:26.439Z,5.80
2019-04-03T18:52:56.363Z,5.80
2019-04-03T18:55:26.530Z,5.80
2019-04-03T18:57:57.282Z,5.80
2019-04-03T19:42:24.789Z,5.70
2019-04-03T19:44:55.475Z,5.60
2019-04-03T19:47:26.538Z,5.60
2019-04-03T19:50:00.794Z,5.60
2019-04-03T19:52:32.926Z,5.60
2019-04-03T19:55:03.480Z,5.60
2019-04-03T19:57:34.270Z,5.60
2019-04-03T20:00:15.107Z,5.60
2019-04-03T20:02:46.632Z,5.50
2019-04-03T20:05:18.920Z,5.50
2019-04-03T20:07:50.221Z,5.50
2019-04-03T20:10:20.974Z,5.50
2019-04-03T20:12:51.675Z,5.50
2019-04-03T20:15:23.401Z,5.40
2019-04-03T20:17:54.871Z,5.40
2019-04-03T20:20:29.676Z,5.40
2019-04-03T20:22:59.494Z,5.40
2019-04-03T20:25:29.930Z,5.40
2019-04-03T20:28:01.276Z,5.40
2019-04-03T20:30:32.849Z,5.40
2019-04-03T20:33:04.725Z,5.40
2019-04-03T20:35:35.643Z,5.40
2019-04-03T20:38:06.532Z,5.40
2019-04-03T20:40:39.656Z,5.40
2019-04-03T20:43:11.075Z,5.40
2019-04-03T20:45:40.961Z,5.40
2019-04-03T20:48:10.913Z,5.40
2019-04-03T20:50:40.879Z,5.40
2019-04-03T20:53:10.809Z,5.40
2019-04-03T20:55:40.778Z,5.40
2019-04-03T20:58:10.715Z,5.40
2019-04-03T21:00:41.132Z,5.30
2019-04-03T21:03:12.998Z,5.30
2019-04-03T21:05:43.076Z,5.30
2019-04-03T21:08:13.035Z,5.30
2019-04-03T21:10:43.016Z,5.30
2019-04-03T21:13:15.253Z,5.30
2019-04-03T21:15:45.656Z,5.30
2019-04-03T21:18:15.975Z,5.30
2019-04-03T21:20:45.832Z,5.30
2019-04-03T21:23:15.859Z,5.30
2019-04-03T21:25:45.732Z,5.20
2019-04-03T21:28:15.703Z,5.20
2019-04-03T21:30:47.396Z,5.20
2019-04-03T21:33:17.573Z,5.20
2019-04-03T21:35:47.560Z,5.20
2019-04-03T21:38:17.612Z,5.20
2019-04-03T21:40:48.659Z,5.20
2019-04-03T21:43:18.612Z,5.10
2019-04-03T21:45:48.722Z,5.10
2019-04-03T21:48:18.629Z,5.10
2019-04-03T21:50:49.773Z,5.10
2019-04-03T21:53:20.291Z,5.10
2019-04-03T21:55:50.236Z,5.10
2019-04-03T21:58:20.213Z,5.10
2019-04-03T22:01:22.333Z,5.00
2019-04-03T22:03:52.883Z,5.00
2019-04-03T22:06:22.907Z,5.00
2019-04-03T22:08:52.844Z,5.00
2019-04-03T22:11:22.988Z,5.00
2019-04-03T22:13:52.866Z,5.00
2019-04-03T22:16:22.971Z,4.90
2019-04-03T22:18:54.708Z,4.90
2019-04-03T22:21:24.704Z,4.90
2019-04-03T22:23:54.654Z,4.90
2019-04-03T22:26:24.575Z,4.90
2019-04-03T22:28:54.780Z,4.90
2019-04-03T22:31:24.704Z,4.90
2019-04-03T22:33:54.646Z,4.90
2019-04-03T22:36:24.527Z,4.90
2019-04-03T22:38:54.472Z,5.00
2019-04-03T22:41:24.345Z,5.00
2019-04-03T22:43:54.407Z,5.00
2019-04-03T22:46:24.336Z,5.00
2019-04-03T22:48:54.287Z,5.00
2019-04-03T22:51:24.401Z,5.00
2019-04-03T22:53:54.280Z,5.00
2019-04-03T22:56:24.149Z,5.00
2019-04-03T22:58:54.036Z,5.00
2019-04-03T23:01:24.044Z,5.00
2019-04-03T23:03:53.992Z,5.00
2019-04-03T23:06:23.923Z,5.00
2019-04-03T23:08:54.414Z,5.00
2019-04-03T23:11:24.519Z,5.00
2019-04-03T23:13:54.475Z,4.80
2019-04-03T23:16:24.411Z,5.00
2019-04-03T23:18:54.297Z,5.00
2019-04-03T23:21:24.270Z,5.00
2019-04-03T23:23:57.600Z,5.00
2019-04-03T23:26:25.959Z,4.90
2019-04-03T23:28:55.903Z,4.90
2019-04-03T23:31:25.832Z,4.90
2019-04-03T23:33:55.816Z,4.90
2019-04-03T23:36:25.775Z,4.90
2019-04-03T23:38:56.737Z,4.90
2019-04-03T23:41:27.084Z,4.90
2019-04-03T23:43:57.006Z,4.80
2019-04-03T23:46:26.871Z,4.80
2019-04-03T23:48:56.822Z,4.80
2019-04-03T23:51:28.017Z,4.80
2019-04-03T23:53:58.182Z,4.80
2019-04-03T23:56:28.111Z,4.80
2019-04-03T23:58:58.019Z,4.80
